This is the latest recevied weather packets stored in our database for station/object KD4WLE. If no packets are shown the sender has not sent any weather packets the latest 10 day(s).
| Time | Temp. | Humidity | Pressure | Rain* | Wind** | Luminosity | Snow |
|---|---|---|---|---|---|---|---|
| 1777481184 | 28.89° C | 65% | 1016.6 hPa | 0 mm | - | 776 W/m² | - |
| 1777480881 | 28.89° C | 65% | 1017 hPa | 0 mm | - | 789 W/m² | - |
| 1777480577 | 28.89° C | 69% | 1017.1 hPa | 0 mm | - | 775 W/m² | - |
| 1777480275 | 29.44° C | 68% | 1017.1 hPa | 0 mm | - | 723 W/m² | - |
| 1777479970 | 29.44° C | 68% | 1017.2 hPa | 0 mm | - | 761 W/m² | - |
| 1777479668 | 28.89° C | 69% | 1017.4 hPa | 0 mm | - | 756 W/m² | - |
| 1777479366 | 29.44° C | 68% | 1017.4 hPa | 0 mm | - | 739 W/m² | - |
| 1777479062 | 28.33° C | 70% | 1017.6 hPa | 0 mm | - | 738 W/m² | - |
| 1777478758 | 28.89° C | 69% | 1017.7 hPa | 0 mm | - | 302 W/m² | - |
| 1777478455 | 28.89° C | 69% | 1018.1 hPa | 0 mm | - | 831 W/m² | - |
| 1777478151 | 29.44° C | 68% | 1018 hPa | 0 mm | - | 707 W/m² | - |
| 1777477848 | 28.89° C | 71% | 1018 hPa | 0 mm | - | 761 W/m² | - |
| 1777477543 | 28.89° C | 71% | 1018.1 hPa | 0 mm | - | 677 W/m² | - |
| 1777477240 | 28.33° C | 71% | 1018.2 hPa | 0 mm | - | 349 W/m² | - |
| 1777476936 | 27.78° C | 72% | 1018.2 hPa | 0 mm | - | 718 W/m² | - |
| 1777476635 | 28.33° C | 71% | 1018.2 hPa | 0 mm | - | 721 W/m² | - |
| 1777476331 | 28.33° C | 72% | 1018.3 hPa | 0 mm | - | 743 W/m² | - |
| 1777476027 | 28.33° C | 73% | 1018.2 hPa | 0 mm | - | 686 W/m² | - |
| 1777475723 | 27.78° C | 75% | 1018.1 hPa | 0 mm | - | 665 W/m² | - |
| 1777475419 | 28.33° C | 74% | 1018.2 hPa | 0 mm | - | 649 W/m² | - |
| 1777475114 | 27.78° C | 76% | 1018.2 hPa | 0 mm | - | 647 W/m² | - |
| 1777474812 | 27.78° C | 74% | 1018.6 hPa | 0 mm | - | 582 W/m² | - |
| 1777474507 | 27.22° C | 78% | 1018.3 hPa | 0 mm | - | 563 W/m² | - |
| 1777474204 | 27.22° C | 75% | 1018.6 hPa | 0 mm | - | 492 W/m² | - |
| 1777473901 | 26.67° C | 75% | 1018.5 hPa | 0 mm | - | 468 W/m² | - |
* Rain latest hour (hover to see other rain measurements)
** Current wind speed in m/s (hover to see current wind gust speed)